Time;durP1;ratioP1;P1;durP2;ratioP2;P2;SDS_P1;SDS_P2;PMS_P1;PMS_P2;Temp;Humidity;BMP_temperature;BMP_pressure;BME280_temperature;BME280_humidity;BME280_pressure;Samples;Min_cycle;Max_cycle;Signal;HPM_P1;HPM_P2
2021/03/30 00:00:55;;;;;;;7.35;6.65;;;5.50;56.70;;;;;;5166267;28;20064;-69
2021/03/30 00:03:26;;;;;;;8.65;7.28;;;5.50;56.60;;;;;;5166374;28;20053;-70
2021/03/30 00:05:58;;;;;;;8.20;7.40;;;5.50;56.80;;;;;;5160942;28;20053;-69
2021/03/30 00:08:29;;;;;;;8.25;7.43;;;5.50;58.20;;;;;;5162531;28;20439;-69
2021/03/30 00:11:01;;;;;;;8.10;7.20;;;5.40;59.80;;;;;;5164556;28;20050;-69
2021/03/30 00:13:33;;;;;;;8.38;6.85;;;5.30;60.00;;;;;;5177362;28;20061;-70
2021/03/30 00:16:04;;;;;;;9.32;7.00;;;5.20;59.50;;;;;;5162842;28;20047;-70
2021/03/30 00:18:36;;;;;;;7.63;6.93;;;5.20;59.70;;;;;;5160913;28;20385;-70
2021/03/30 00:21:08;;;;;;;9.18;7.18;;;5.00;59.70;;;;;;5170810;28;20372;-70
2021/03/30 00:23:39;;;;;;;8.13;7.22;;;5.00;59.20;;;;;;5179320;28;20148;-69
2021/03/30 00:26:11;;;;;;;8.18;6.60;;;5.00;59.90;;;;;;5172132;28;20121;-70
2021/03/30 00:28:42;;;;;;;7.85;6.90;;;4.90;59.30;;;;;;5164427;28;20402;-70
2021/03/30 00:31:14;;;;;;;8.10;7.30;;;4.90;60.90;;;;;;5161191;28;20054;-70
2021/03/30 00:33:45;;;;;;;7.57;6.60;;;4.90;60.70;;;;;;5159434;28;20046;-70
2021/03/30 00:36:16;;;;;;;8.52;6.95;;;4.90;61.10;;;;;;5164758;28;20045;-69
2021/03/30 00:38:48;;;;;;;7.30;6.60;;;4.80;61.00;;;;;;5162432;28;20052;-69
2021/03/30 00:41:20;;;;;;;8.55;7.15;;;4.80;60.90;;;;;;5166653;28;20125;-70
2021/03/30 00:43:51;;;;;;;8.65;7.07;;;4.80;59.40;;;;;;5165119;28;20481;-69
2021/03/30 00:46:24;;;;;;;8.77;7.07;;;4.90;60.20;;;;;;5163272;28;20461;-70
2021/03/30 00:48:55;;;;;;;7.60;6.88;;;4.90;59.90;;;;;;5162083;28;20117;-69
2021/03/30 00:51:27;;;;;;;8.45;7.32;;;4.90;60.40;;;;;;5177446;28;20049;-69
2021/03/30 00:54:27;;;;;;;8.00;6.78;;;4.90;60.20;;;;;;5162828;28;20053;-70
2021/03/30 00:57:09;;;;;;;7.38;6.68;;;4.80;60.40;;;;;;5163686;28;20050;-69
2021/03/30 00:59:41;;;;;;;7.50;6.80;;;4.80;61.30;;;;;;5164168;28;20143;-70
2021/03/30 01:02:13;;;;;;;8.07;6.93;;;4.70;60.10;;;;;;5159845;28;20077;-71
2021/03/30 01:04:44;;;;;;;7.63;6.82;;;4.70;60.10;;;;;;5162972;28;20057;-71
2021/03/30 01:07:16;;;;;;;7.63;6.60;;;4.70;60.10;;;;;;5161728;28;20038;-70
2021/03/30 01:10:23;;;;;;;8.15;7.13;;;4.80;59.10;;;;;;5163053;28;20046;-70
2021/03/30 01:13:21;;;;;;;8.63;6.82;;;4.80;59.80;;;;;;5169047;28;21098;-70
2021/03/30 01:16:02;;;;;;;10.45;7.68;;;4.80;59.60;;;;;;5167372;28;20511;-70
2021/03/30 01:18:51;;;;;;;9.68;7.45;;;4.80;59.80;;;;;;5167618;28;20057;-71
2021/03/30 01:21:29;;;;;;;7.82;7.03;;;4.80;60.40;;;;;;5166650;28;20050;-71
2021/03/30 01:24:25;;;;;;;7.85;7.03;;;4.70;60.60;;;;;;5164228;28;20054;-71
2021/03/30 01:27:08;;;;;;;9.82;7.05;;;4.80;60.30;;;;;;5166986;28;20404;-71
2021/03/30 01:29:49;;;;;;;7.60;6.90;;;4.70;60.80;;;;;;5164579;28;20589;-70
2021/03/30 01:32:39;;;;;;;7.57;6.80;;;4.60;60.10;;;;;;5167735;28;20145;-70
2021/03/30 01:35:15;;;;;;;8.35;7.47;;;4.70;59.20;;;;;;5166703;28;20064;-71
2021/03/30 01:37:47;;;;;;;7.72;6.93;;;4.70;60.40;;;;;;5181775;28;20100;-71
2021/03/30 01:40:30;;;;;;;8.02;7.22;;;4.70;59.60;;;;;;5162984;28;20178;-71
2021/03/30 01:43:06;;;;;;;7.97;7.05;;;4.70;60.40;;;;;;5167242;28;20050;-71
2021/03/30 01:45:38;;;;;;;8.25;6.43;;;4.60;59.60;;;;;;5168303;28;20094;-70
2021/03/30 01:48:11;;;;;;;8.52;6.55;;;4.60;59.10;;;;;;5168549;28;20038;-70
2021/03/30 01:50:42;;;;;;;8.27;6.65;;;4.60;59.30;;;;;;5165618;28;20129;-70
2021/03/30 01:53:16;;;;;;;8.80;7.20;;;4.60;58.90;;;;;;5165478;28;20042;-73
2021/03/30 01:55:52;;;;;;;8.93;6.70;;;4.70;58.50;;;;;;5167039;28;20129;-71
2021/03/30 01:58:26;;;;;;;7.45;6.75;;;4.80;58.00;;;;;;5169236;28;20645;-70
2021/03/30 02:01:00;;;;;;;8.27;7.43;;;4.70;59.40;;;;;;5168682;28;20043;-69
2021/03/30 02:03:31;;;;;;;7.47;6.70;;;4.70;60.10;;;;;;5166025;28;20450;-70
2021/03/30 02:06:06;;;;;;;8.32;6.88;;;4.50;59.50;;;;;;5166577;28;20050;-70
2021/03/30 02:08:39;;;;;;;7.50;6.68;;;4.50;59.60;;;;;;5162723;28;20073;-69
2021/03/30 02:11:19;;;;;;;8.43;7.53;;;4.60;59.70;;;;;;5165369;28;20046;-69
2021/03/30 02:13:56;;;;;;;8.85;7.10;;;4.60;59.30;;;;;;5165611;28;20777;-70
2021/03/30 02:16:45;;;;;;;7.88;7.07;;;4.50;60.40;;;;;;5164590;28;20680;-70
2021/03/30 02:19:27;;;;;;;7.80;6.95;;;4.50;60.80;;;;;;5166896;28;20125;-70
2021/03/30 02:22:07;;;;;;;8.40;6.90;;;4.40;59.70;;;;;;5167712;28;20116;-71
2021/03/30 02:24:43;;;;;;;8.95;6.65;;;4.40;60.80;;;;;;5165478;28;20045;-70
2021/03/30 02:27:14;;;;;;;8.70;7.05;;;4.40;61.20;;;;;;5165989;28;20054;-69
2021/03/30 02:29:49;;;;;;;8.55;7.13;;;4.30;61.00;;;;;;5163744;28;20053;-69
2021/03/30 02:32:23;;;;;;;7.35;6.53;;;4.40;60.00;;;;;;5155860;28;20043;-70
2021/03/30 02:34:56;;;;;;;7.93;7.03;;;4.40;60.20;;;;;;5164805;28;20050;-70
2021/03/30 02:37:28;;;;;;;8.45;7.10;;;4.50;60.10;;;;;;5165927;28;20610;-69
2021/03/30 02:40:00;;;;;;;9.05;7.20;;;4.50;61.10;;;;;;5163947;28;20041;-70
2021/03/30 02:42:35;;;;;;;7.45;6.75;;;4.50;59.80;;;;;;5161851;28;20047;-71
2021/03/30 02:45:09;;;;;;;9.07;6.90;;;4.50;60.70;;;;;;5160569;28;20138;-69
2021/03/30 02:47:43;;;;;;;7.85;7.00;;;4.40;60.00;;;;;;5166166;28;20104;-69
2021/03/30 02:50:15;;;;;;;8.38;7.03;;;4.30;59.60;;;;;;5165433;28;20054;-69
2021/03/30 02:52:47;;;;;;;8.50;6.90;;;4.40;58.90;;;;;;5183128;28;20526;-70
2021/03/30 02:55:20;;;;;;;7.53;6.80;;;4.50;58.60;;;;;;5163146;28;20057;-70
2021/03/30 02:57:52;;;;;;;8.88;7.78;;;4.50;58.80;;;;;;5167671;28;20038;-70
2021/03/30 03:00:25;;;;;;;8.40;7.60;;;4.50;59.10;;;;;;5168384;28;20054;-71
2021/03/30 03:02:59;;;;;;;8.68;7.80;;;4.20;61.20;;;;;;5165919;28;20675;-70
2021/03/30 03:05:30;;;;;;;7.90;7.18;;;3.90;62.00;;;;;;5164558;28;20558;-70
2021/03/30 03:08:05;;;;;;;8.40;7.47;;;3.90;61.00;;;;;;5165680;28;20046;-70
2021/03/30 03:10:37;;;;;;;8.10;7.30;;;3.90;61.00;;;;;;5166476;28;20131;-70
2021/03/30 03:13:16;;;;;;;8.85;7.70;;;3.90;60.70;;;;;;5165157;28;20108;-70
2021/03/30 03:15:47;;;;;;;8.98;6.47;;;3.90;61.90;;;;;;5166123;28;20568;-70
2021/03/30 03:18:22;;;;;;;8.40;7.60;;;3.90;60.70;;;;;;5161489;28;20038;-69
2021/03/30 03:20:54;;;;;;;8.95;7.20;;;4.10;60.40;;;;;;5162979;28;20523;-70
2021/03/30 03:23:26;;;;;;;7.63;6.90;;;4.10;60.50;;;;;;5163687;28;20046;-70
2021/03/30 03:25:58;;;;;;;9.63;7.53;;;4.10;60.40;;;;;;5164180;28;20034;-71
2021/03/30 03:28:29;;;;;;;7.65;6.80;;;4.10;60.00;;;;;;5168315;28;20046;-71
2021/03/30 03:31:01;;;;;;;9.40;7.40;;;4.00;60.80;;;;;;5166443;28;20066;-70
2021/03/30 03:33:33;;;;;;;8.95;7.55;;;4.00;61.10;;;;;;5162005;28;20038;-70
2021/03/30 03:36:10;;;;;;;8.18;7.30;;;3.80;61.60;;;;;;5163237;28;20059;-71
2021/03/30 03:38:43;;;;;;;8.13;7.32;;;3.60;62.80;;;;;;5162484;28;20536;-69
2021/03/30 03:41:16;;;;;;;8.75;7.35;;;3.50;62.10;;;;;;5164752;28;20046;-69
2021/03/30 03:43:49;;;;;;;8.73;7.13;;;3.50;63.30;;;;;;5163842;28;20119;-70
2021/03/30 03:46:21;;;;;;;7.88;7.07;;;3.50;62.40;;;;;;5179182;28;20086;-70
2021/03/30 03:48:52;;;;;;;7.60;6.82;;;3.40;63.00;;;;;;5165806;28;20046;-69
2021/03/30 03:51:26;;;;;;;7.60;6.90;;;3.40;61.70;;;;;;5168031;28;20050;-69
2021/03/30 03:54:00;;;;;;;9.70;7.78;;;3.50;62.00;;;;;;5168734;28;20111;-70
2021/03/30 03:56:41;;;;;;;9.20;6.97;;;3.50;61.80;;;;;;5169205;28;20073;-69
2021/03/30 03:59:31;;;;;;;7.35;6.68;;;3.50;62.80;;;;;;5167640;28;20416;-69
2021/03/30 04:02:13;;;;;;;8.45;7.43;;;3.50;61.70;;;;;;5179353;28;20139;-69
2021/03/30 04:04:52;;;;;;;8.15;7.07;;;3.60;61.50;;;;;;5163934;28;20708;-68
2021/03/30 04:07:33;;;;;;;8.37;7.23;;;3.60;61.00;;;;;;5163463;28;20082;-69
2021/03/30 04:10:07;;;;;;;;;;;3.60;61.50;;;;;;5177887;28;20320;-69
2021/03/30 04:12:40;;;;;;;9.77;7.75;;;3.60;61.60;;;;;;5182455;28;19982;-69
2021/03/30 04:15:12;;;;;;;7.68;6.97;;;3.60;60.90;;;;;;5185186;28;20538;-69
2021/03/30 04:17:47;;;;;;;11.95;7.63;;;3.60;61.80;;;;;;5185188;28;20423;-69
2021/03/30 04:20:20;;;;;;;8.63;7.15;;;3.50;61.20;;;;;;5184563;28;20060;-68
2021/03/30 04:22:58;;;;;;;9.80;7.60;;;3.50;60.80;;;;;;5184667;28;20048;-67
2021/03/30 04:25:30;;;;;;;12.65;8.30;;;3.50;61.90;;;;;;5198203;28;20064;-67
2021/03/30 04:28:01;;;;;;;12.75;9.15;;;3.40;61.90;;;;;;5184197;28;20054;-68
2021/03/30 04:30:32;;;;;;;11.30;8.63;;;3.40;62.00;;;;;;5186459;28;20065;-68
2021/03/30 04:33:04;;;;;;;8.35;7.38;;;3.20;61.60;;;;;;5183816;28;20042;-67
2021/03/30 04:35:35;;;;;;;7.70;6.88;;;3.20;63.40;;;;;;5186020;28;20041;-67
2021/03/30 04:38:07;;;;;;;7.65;6.90;;;3.10;63.30;;;;;;5186116;28;20045;-67
2021/03/30 04:40:38;;;;;;;8.88;7.05;;;3.10;63.20;;;;;;5177671;28;20049;-67
2021/03/30 04:43:09;;;;;;;9.23;7.28;;;3.10;63.70;;;;;;5185814;28;20053;-67
2021/03/30 04:45:41;;;;;;;9.63;7.50;;;3.10;63.60;;;;;;5181638;28;20164;-67
2021/03/30 04:48:12;;;;;;;8.57;7.57;;;3.10;62.50;;;;;;5182934;28;20062;-66
2021/03/30 04:50:44;;;;;;;8.00;7.03;;;3.10;63.40;;;;;;5183919;28;20137;-68
2021/03/30 04:53:16;;;;;;;10.20;8.57;;;3.00;63.90;;;;;;5190153;28;20042;-68
2021/03/30 04:55:47;;;;;;;8.57;7.63;;;2.90;64.90;;;;;;5184254;28;20435;-67
2021/03/30 04:58:19;;;;;;;9.40;8.40;;;3.00;63.70;;;;;;5186493;28;20045;-67
2021/03/30 05:00:51;;;;;;;10.50;8.20;;;3.00;63.70;;;;;;5180609;28;20046;-67
2021/03/30 05:03:23;;;;;;;10.30;8.20;;;3.00;64.40;;;;;;5178941;28;20104;-67
2021/03/30 05:05:54;;;;;;;11.02;7.70;;;3.00;64.20;;;;;;5183403;28;20304;-67
2021/03/30 05:08:26;;;;;;;8.70;7.88;;;3.10;64.30;;;;;;5187580;28;20049;-67
2021/03/30 05:10:59;;;;;;;8.52;6.93;;;3.10;63.40;;;;;;5182503;28;20052;-68
2021/03/30 05:13:30;;;;;;;8.05;6.40;;;3.10;63.10;;;;;;5184675;28;20038;-67
2021/03/30 05:16:02;;;;;;;8.00;6.40;;;3.10;64.50;;;;;;5188516;28;20038;-67
2021/03/30 05:18:37;;;;;;;7.60;6.60;;;3.20;64.00;;;;;;5187604;28;20461;-67
2021/03/30 05:21:09;;;;;;;9.32;6.60;;;3.20;63.70;;;;;;5185044;28;20104;-68
2021/03/30 05:23:40;;;;;;;9.00;6.75;;;3.30;62.30;;;;;;5185417;28;20045;-69
2021/03/30 05:26:12;;;;;;;10.82;7.35;;;3.40;62.70;;;;;;5185544;28;20042;-66
2021/03/30 05:28:43;;;;;;;8.52;7.60;;;3.30;62.90;;;;;;5185731;28;20041;-67
2021/03/30 05:31:14;;;;;;;10.80;8.02;;;3.30;62.90;;;;;;5184329;28;20053;-67
2021/03/30 05:33:46;;;;;;;12.68;7.55;;;3.20;63.20;;;;;;5186767;28;20105;-67
2021/03/30 05:36:17;;;;;;;8.40;7.10;;;3.20;63.20;;;;;;5188708;28;20136;-67
2021/03/30 05:38:49;;;;;;;9.10;6.70;;;3.20;63.10;;;;;;5200371;28;20049;-66
2021/03/30 05:41:20;;;;;;;7.50;6.40;;;3.10;64.30;;;;;;5185308;28;20053;-67
2021/03/30 05:43:52;;;;;;;7.07;6.38;;;3.30;63.50;;;;;;5178435;28;20049;-68
2021/03/30 05:46:23;;;;;;;7.38;6.47;;;3.50;63.90;;;;;;5180296;28;20580;-67
2021/03/30 05:48:55;;;;;;;8.88;7.10;;;3.70;62.60;;;;;;5181219;28;20504;-67
2021/03/30 05:51:30;;;;;;;9.57;7.18;;;3.80;62.50;;;;;;5183188;28;20144;-67
2021/03/30 05:54:03;;;;;;;8.68;7.00;;;3.80;62.50;;;;;;5181767;28;20247;-68
2021/03/30 05:56:39;;;;;;;8.77;7.10;;;4.00;62.20;;;;;;5183803;28;20096;-69
2021/03/30 05:59:13;;;;;;;8.95;8.00;;;4.00;61.90;;;;;;5188626;28;20091;-67
2021/03/30 06:01:45;;;;;;;9.90;7.38;;;4.20;61.70;;;;;;5185235;28;20046;-67
2021/03/30 06:04:18;;;;;;;8.55;7.22;;;4.40;61.00;;;;;;5186431;28;20045;-68
2021/03/30 06:06:49;;;;;;;10.93;7.50;;;4.50;60.90;;;;;;5187026;28;20126;-69
2021/03/30 06:09:21;;;;;;;8.82;7.72;;;4.70;60.90;;;;;;5190104;28;20102;-68
2021/03/30 06:12:10;;;;;;;8.95;6.68;;;4.80;60.80;;;;;;5186513;28;20111;-67
2021/03/30 06:14:44;;;;;;;10.00;7.13;;;4.90;60.20;;;;;;5188435;28;20107;-67
2021/03/30 06:17:16;;;;;;;10.25;7.00;;;5.10;60.00;;;;;;5184165;28;20057;-68
2021/03/30 06:19:54;;;;;;;10.10;8.18;;;5.30;59.60;;;;;;5188263;28;20412;-67
2021/03/30 06:22:26;;;;;;;12.30;8.10;;;5.40;59.10;;;;;;5190511;28;20596;-68
2021/03/30 06:24:58;;;;;;;9.60;7.88;;;5.50;58.70;;;;;;5181920;28;20076;-68
2021/03/30 06:27:30;;;;;;;10.32;8.13;;;5.60;59.20;;;;;;5184024;28;20165;-68
2021/03/30 06:30:04;;;;;;;9.40;7.88;;;5.70;59.30;;;;;;5187163;28;20710;-69
2021/03/30 06:32:36;;;;;;;10.35;7.78;;;5.80;59.40;;;;;;5198074;28;20538;-68
2021/03/30 06:35:14;;;;;;;9.88;8.10;;;6.00;59.40;;;;;;5190524;28;20045;-67
2021/03/30 06:37:45;;;;;;;13.15;8.60;;;6.20;58.90;;;;;;5188027;28;20526;-68
2021/03/30 06:40:25;;;;;;;11.05;9.85;;;6.40;58.70;;;;;;5184623;28;20033;-67
2021/03/30 06:44:24;;;;;;;11.98;9.50;;;6.50;57.60;;;;;;5203642;28;20620;-68
2021/03/30 06:46:00;;;;;;;13.43;8.70;;;6.70;57.20;;;;;;5186419;28;20037;-68
2021/03/30 06:48:32;;;;;;;12.98;8.68;;;6.90;56.80;;;;;;5187182;28;21089;-67
2021/03/30 06:51:19;;;;;;;10.98;8.43;;;7.00;56.10;;;;;;5185565;28;20081;-68
2021/03/30 06:53:51;;;;;;;11.02;8.18;;;7.10;56.50;;;;;;5186971;28;20092;-67
2021/03/30 06:56:58;;;;;;;14.32;8.38;;;7.30;56.30;;;;;;5185392;28;20041;-67
2021/03/30 06:59:41;;;;;;;13.52;11.20;;;7.40;55.00;;;;;;5202342;28;20828;-67
2021/03/30 07:02:14;;;;;;;11.20;9.35;;;7.50;54.90;;;;;;5185841;28;20053;-69
2021/03/30 07:04:57;;;;;;;15.25;10.65;;;7.60;55.20;;;;;;5186665;28;20083;-67
2021/03/30 07:07:31;;;;;;;15.40;10.43;;;7.70;55.00;;;;;;5186266;28;20119;-68
2021/03/30 07:10:03;;;;;;;14.95;9.88;;;8.00;55.10;;;;;;5181869;28;20113;-68
2021/03/30 07:12:35;;;;;;;13.77;10.88;;;8.20;54.90;;;;;;5183884;28;20128;-67
2021/03/30 07:15:08;;;;;;;13.30;9.45;;;8.40;54.60;;;;;;5182627;28;20057;-68
2021/03/30 07:17:42;;;;;;;9.82;8.82;;;8.50;54.90;;;;;;5187112;28;20088;-68
2021/03/30 07:20:17;;;;;;;11.77;9.45;;;8.50;55.00;;;;;;5182604;28;20419;-69
2021/03/30 07:22:50;;;;;;;10.43;9.40;;;8.60;54.70;;;;;;5202929;28;20292;-68
2021/03/30 07:25:23;;;;;;;9.55;8.60;;;8.80;54.30;;;;;;5184551;28;20450;-67
2021/03/30 07:28:00;;;;;;;10.95;8.80;;;8.90;53.40;;;;;;5185259;28;20042;-69
2021/03/30 07:30:32;;;;;;;9.30;8.30;;;9.10;53.30;;;;;;5183245;28;20491;-69
2021/03/30 07:33:47;;;;;;;10.68;8.88;;;9.30;52.00;;;;;;5182420;28;20058;-69
2021/03/30 07:36:21;;;;;;;9.30;8.32;;;9.50;51.50;;;;;;5139399;28;20050;-68
2021/03/30 07:38:59;;;;;;;9.88;8.88;;;9.70;51.60;;;;;;5142886;28;20149;-69
2021/03/30 07:41:30;;;;;;;11.43;9.55;;;9.80;49.90;;;;;;5165287;28;20513;-67
2021/03/30 07:44:02;;;;;;;11.93;9.35;;;10.00;49.10;;;;;;5190071;28;20779;-69
2021/03/30 07:46:35;;;;;;;11.85;9.60;;;10.10;49.40;;;;;;5185300;28;20080;-67
2021/03/30 07:49:10;;;;;;;10.40;9.27;;;10.30;49.00;;;;;;5179437;28;20158;-68
2021/03/30 07:51:44;;;;;;;9.93;8.93;;;10.40;49.00;;;;;;5185833;28;20041;-69
2021/03/30 07:54:18;;;;;;;10.15;9.15;;;10.60;49.10;;;;;;5184564;28;20505;-68
2021/03/30 07:56:51;;;;;;;10.45;9.38;;;10.80;47.90;;;;;;5189507;28;20649;-68
2021/03/30 07:59:42;;;;;;;11.73;9.27;;;10.80;47.90;;;;;;5180881;28;20041;-68
2021/03/30 08:02:32;;;;;;;10.18;9.15;;;11.00;47.00;;;;;;5185848;28;20068;-69
2021/03/30 08:05:12;;;;;;;15.98;9.30;;;11.20;47.50;;;;;;5183959;28;20041;-69
2021/03/30 08:07:51;;;;;;;11.27;9.52;;;11.40;45.00;;;;;;5201065;28;20049;-68
2021/03/30 08:10:34;;;;;;;11.00;9.35;;;11.50;46.70;;;;;;5199188;28;20045;-68
2021/03/30 08:13:29;;;;;;;9.93;8.90;;;11.70;43.10;;;;;;5200994;28;20115;-68
2021/03/30 08:16:09;;;;;;;11.65;9.13;;;11.80;45.70;;;;;;5184594;28;20056;-69
2021/03/30 08:18:43;;;;;;;10.25;9.25;;;12.00;43.80;;;;;;5186143;28;20041;-68
2021/03/30 08:21:18;;;;;;;12.43;9.75;;;12.20;42.50;;;;;;5186865;28;20073;-68
2021/03/30 08:23:54;;;;;;;11.07;9.43;;;12.30;43.10;;;;;;5188770;28;20048;-68
2021/03/30 08:26:28;;;;;;;12.00;9.40;;;12.50;38.80;;;;;;5183782;28;20053;-68
2021/03/30 08:29:12;;;;;;;10.02;8.98;;;12.60;38.60;;;;;;5186052;28;20068;-68
2021/03/30 08:31:49;;;;;;;11.65;9.00;;;12.70;37.10;;;;;;5179563;28;20042;-68
2021/03/30 08:34:26;;;;;;;12.00;9.52;;;12.80;36.50;;;;;;5195953;28;20573;-69
2021/03/30 08:36:58;;;;;;;10.35;9.35;;;13.00;37.20;;;;;;5181930;28;20046;-68
2021/03/30 08:39:32;;;;;;;11.73;9.60;;;13.10;36.00;;;;;;5182464;28;20096;-68
2021/03/30 08:42:04;;;;;;;10.32;9.32;;;13.30;35.60;;;;;;5179974;28;20571;-69
2021/03/30 08:44:59;;;;;;;12.38;8.80;;;13.40;36.60;;;;;;5184312;28;20546;-69
2021/03/30 08:47:40;;;;;;;10.40;9.25;;;13.60;32.60;;;;;;5184975;28;20430;-70
2021/03/30 08:50:39;;;;;;;9.93;8.98;;;13.70;32.10;;;;;;5185358;28;20041;-68
2021/03/30 08:53:19;;;;;;;9.75;8.68;;;13.80;34.30;;;;;;5152604;28;20038;-68
2021/03/30 08:55:52;;;;;;;9.55;8.70;;;14.00;32.80;;;;;;5162263;28;20042;-68
2021/03/30 08:58:25;;;;;;;11.15;8.82;;;14.20;31.90;;;;;;5164617;28;20366;-68
2021/03/30 09:00:57;;;;;;;10.35;9.35;;;14.30;30.00;;;;;;5163240;28;20725;-68
2021/03/30 09:03:29;;;;;;;9.73;8.93;;;14.50;32.80;;;;;;5162816;28;20042;-68
2021/03/30 09:06:01;;;;;;;10.73;9.68;;;14.60;32.80;;;;;;5165780;28;20109;-69
2021/03/30 09:08:37;;;;;;;12.73;9.20;;;14.80;32.90;;;;;;5162922;28;20104;-68
2021/03/30 09:11:21;;;;;;;10.30;9.27;;;14.90;30.90;;;;;;5162411;28;20050;-69
2021/03/30 09:14:05;;;;;;;11.65;9.82;;;15.00;33.00;;;;;;5164751;28;20061;-69
2021/03/30 09:16:37;;;;;;;10.43;8.93;;;15.10;32.30;;;;;;5159914;28;20058;-68
2021/03/30 09:19:33;;;;;;;10.45;9.30;;;15.20;29.60;;;;;;5161994;28;20069;-69
2021/03/30 09:22:08;;;;;;;11.10;9.95;;;15.30;32.00;;;;;;5162825;28;20049;-68
2021/03/30 09:27:36;;;;;;;12.77;10.45;;;15.60;31.70;;;;;;5163600;28;20458;-68
2021/03/30 09:30:13;;;;;;;13.52;9.95;;;15.60;30.00;;;;;;5162743;28;20205;-69
2021/03/30 09:32:46;;;;;;;10.60;9.32;;;15.70;31.60;;;;;;5167228;28;20487;-68
2021/03/30 09:35:23;;;;;;;10.77;9.68;;;15.70;29.30;;;;;;5180790;28;20046;-70
2021/03/30 09:37:58;;;;;;;11.18;9.98;;;15.80;31.30;;;;;;5168189;28;20141;-68
2021/03/30 09:40:35;;;;;;;10.40;9.40;;;15.90;32.00;;;;;;5174126;28;20470;-70
2021/03/30 09:43:12;;;;;;;10.20;9.20;;;16.10;31.40;;;;;;5168684;28;20134;-67
2021/03/30 09:45:45;;;;;;;13.57;9.30;;;16.20;30.00;;;;;;5168757;28;20726;-68
2021/03/30 09:48:18;;;;;;;12.02;9.98;;;16.30;30.10;;;;;;5169927;28;20037;-70
2021/03/30 09:50:51;;;;;;;11.35;10.23;;;16.40;30.70;;;;;;5167889;28;20134;-69
2021/03/30 09:53:37;;;;;;;11.20;10.20;;;16.60;29.20;;;;;;5165408;28;20415;-71
2021/03/30 09:56:19;;;;;;;10.88;9.85;;;16.70;28.70;;;;;;5168643;28;20109;-69
2021/03/30 09:58:56;;;;;;;12.23;11.02;;;16.80;29.40;;;;;;5166722;28;20061;-70
2021/03/30 10:01:27;;;;;;;11.05;10.05;;;17.00;28.80;;;;;;5168412;28;20054;-70
2021/03/30 10:03:59;;;;;;;11.23;10.07;;;17.10;29.50;;;;;;5164101;28;20136;-69
2021/03/30 10:06:30;;;;;;;15.20;10.10;;;17.20;29.30;;;;;;5165600;28;20050;-69
2021/03/30 10:09:06;;;;;;;13.05;10.43;;;17.30;29.60;;;;;;5166720;28;20042;-69
2021/03/30 10:11:38;;;;;;;11.90;10.60;;;17.40;29.00;;;;;;5168498;28;20471;-69
2021/03/30 10:14:45;;;;;;;11.80;10.57;;;17.50;29.40;;;;;;5172274;28;20104;-70
2021/03/30 10:17:16;;;;;;;12.15;11.02;;;17.60;28.80;;;;;;5170465;28;20046;-69
2021/03/30 10:19:53;;;;;;;11.90;10.80;;;17.70;28.50;;;;;;5166161;28;20522;-71
2021/03/30 10:22:34;;;;;;;12.35;11.07;;;17.80;27.90;;;;;;5168149;28;20119;-69
2021/03/30 10:25:11;;;;;;;12.18;10.52;;;17.90;29.20;;;;;;5167463;28;20050;-70
2021/03/30 10:27:52;;;;;;;11.32;10.32;;;18.00;28.50;;;;;;5164456;28;20070;-70
2021/03/30 10:30:39;;;;;;;11.50;10.45;;;18.00;28.70;;;;;;5163864;28;20066;-70
2021/03/30 10:33:18;;;;;;;11.85;10.63;;;18.10;28.50;;;;;;5165164;28;20216;-70
2021/03/30 10:35:49;;;;;;;11.77;10.68;;;18.20;29.20;;;;;;5165036;28;20068;-69
2021/03/30 10:38:20;;;;;;;12.30;10.75;;;18.30;28.20;;;;;;5168416;28;20418;-70
2021/03/30 10:41:05;;;;;;;11.85;10.65;;;18.40;28.00;;;;;;5165563;28;20759;-70
2021/03/30 10:43:38;;;;;;;12.02;10.75;;;18.50;28.20;;;;;;5164142;28;20130;-70
2021/03/30 10:46:21;;;;;;;11.95;10.85;;;18.50;28.10;;;;;;5180684;28;20608;-69
2021/03/30 10:49:08;;;;;;;14.55;13.10;;;18.60;27.50;;;;;;5165605;28;20043;-70
2021/03/30 10:51:42;;;;;;;12.60;11.38;;;18.70;28.10;;;;;;5164307;28;20041;-70
2021/03/30 10:54:18;;;;;;;14.95;11.15;;;18.80;27.40;;;;;;5165394;28;20450;-70
2021/03/30 10:56:49;;;;;;;15.52;12.98;;;18.80;27.90;;;;;;5182741;28;20086;-69
2021/03/30 10:59:21;;;;;;;21.92;18.63;;;19.00;28.10;;;;;;5178886;28;20050;-68
2021/03/30 11:01:52;;;;;;;12.65;11.55;;;19.00;28.00;;;;;;5168747;28;20121;-70
2021/03/30 11:04:23;;;;;;;12.27;11.18;;;19.10;28.20;;;;;;5165320;28;20046;-68
2021/03/30 11:06:55;;;;;;;13.15;11.70;;;19.20;28.00;;;;;;5164487;28;20156;-69
2021/03/30 11:09:26;;;;;;;13.65;11.73;;;19.30;28.10;;;;;;5166331;28;20107;-69
2021/03/30 11:11:58;;;;;;;12.82;11.63;;;19.40;27.90;;;;;;5166704;28;20070;-69
2021/03/30 11:14:29;;;;;;;13.05;11.80;;;19.50;27.90;;;;;;5166560;28;20129;-69
2021/03/30 11:17:01;;;;;;;12.55;11.35;;;19.60;27.50;;;;;;5166763;28;20129;-68
2021/03/30 11:19:32;;;;;;;13.13;11.75;;;19.70;28.20;;;;;;5164403;28;20069;-70
2021/03/30 11:22:05;;;;;;;12.40;11.40;;;19.80;28.00;;;;;;5178106;28;20064;-69
2021/03/30 11:24:40;;;;;;;13.93;12.57;;;19.90;27.60;;;;;;5169103;28;20161;-69
2021/03/30 11:27:12;;;;;;;13.13;12.05;;;20.00;27.80;;;;;;5164559;28;20111;-70
2021/03/30 11:29:48;;;;;;;13.18;11.88;;;20.00;27.30;;;;;;5163786;28;20642;-69
2021/03/30 11:32:32;;;;;;;13.68;12.48;;;20.00;27.30;;;;;;5161918;28;20062;-70
2021/03/30 11:35:10;;;;;;;13.20;11.95;;;20.10;28.10;;;;;;5161875;28;20160;-70
2021/03/30 11:37:51;;;;;;;13.88;12.70;;;20.30;27.50;;;;;;5164033;28;20049;-70
2021/03/30 11:40:22;;;;;;;13.18;12.02;;;20.20;27.70;;;;;;5164537;28;20444;-70
2021/03/30 11:42:54;;;;;;;13.90;12.60;;;20.00;27.80;;;;;;5164435;28;20127;-69
2021/03/30 11:45:25;;;;;;;13.98;12.75;;;20.10;28.20;;;;;;5165095;28;20050;-69
2021/03/30 11:47:58;;;;;;;13.45;12.20;;;20.40;28.20;;;;;;5166007;28;20030;-70
2021/03/30 11:50:30;;;;;;;13.88;12.57;;;20.40;27.60;;;;;;5169827;28;20515;-69
2021/03/30 11:53:02;;;;;;;13.30;12.05;;;20.60;27.40;;;;;;5168999;28;20045;-71
2021/03/30 11:55:34;;;;;;;13.50;12.30;;;20.80;27.40;;;;;;5166646;28;20046;-73
2021/03/30 11:58:06;;;;;;;14.30;12.98;;;20.90;27.70;;;;;;5164791;28;20046;-71
2021/03/30 12:00:37;;;;;;;14.13;12.93;;;21.10;27.70;;;;;;5165237;28;20065;-71
2021/03/30 12:03:14;;;;;;;14.75;13.32;;;21.30;26.90;;;;;;5153705;28;20519;-70
2021/03/30 12:05:45;;;;;;;13.63;12.52;;;21.20;26.50;;;;;;5136941;28;20053;-71
2021/03/30 12:08:17;;;;;;;14.05;12.73;;;21.20;27.10;;;;;;5167367;28;20156;-71
2021/03/30 12:10:48;;;;;;;14.00;13.00;;;21.30;27.20;;;;;;5167172;28;20137;-71
2021/03/30 12:13:19;;;;;;;13.98;12.82;;;21.50;26.80;;;;;;5172183;28;20042;-70
2021/03/30 12:15:52;;;;;;;14.20;12.75;;;21.60;26.50;;;;;;5169242;28;20107;-70
2021/03/30 12:18:23;;;;;;;13.65;12.52;;;21.70;25.00;;;;;;5170623;28;20074;-72
2021/03/30 12:20:54;;;;;;;14.30;13.10;;;21.70;24.20;;;;;;5167048;28;20802;-70
2021/03/30 12:23:26;;;;;;;14.27;13.07;;;21.50;25.00;;;;;;5168624;28;20840;-71
2021/03/30 12:25:58;;;;;;;14.70;13.40;;;21.70;25.70;;;;;;5171326;28;20081;-70
2021/03/30 12:28:29;;;;;;;13.68;12.57;;;21.80;24.00;;;;;;5168246;28;20136;-71
2021/03/30 12:31:00;;;;;;;14.25;13.10;;;21.70;24.90;;;;;;5168031;28;20070;-71
2021/03/30 12:33:32;;;;;;;15.20;13.90;;;21.80;23.90;;;;;;5168336;28;20034;-70
2021/03/30 12:36:04;;;;;;;14.60;13.40;;;21.90;23.80;;;;;;5162652;28;20133;-71
2021/03/30 12:38:35;;;;;;;15.02;13.55;;;22.00;23.10;;;;;;5170964;28;20193;-71
2021/03/30 12:41:06;;;;;;;14.07;12.90;;;21.90;23.10;;;;;;5165449;28;20061;-71
2021/03/30 12:43:38;;;;;;;14.82;13.57;;;22.00;23.70;;;;;;5166828;28;20049;-71
2021/03/30 12:46:13;;;;;;;14.57;13.23;;;22.10;24.10;;;;;;5165839;28;20474;-70
2021/03/30 12:48:45;;;;;;;14.13;13.02;;;22.20;22.60;;;;;;5147021;28;20066;-70
2021/03/30 12:51:16;;;;;;;14.65;13.45;;;22.30;23.20;;;;;;5163400;28;20046;-71
2021/03/30 12:53:48;;;;;;;13.98;12.88;;;22.30;22.40;;;;;;5166480;28;20053;-70
2021/03/30 12:56:19;;;;;;;14.32;13.13;;;22.40;23.10;;;;;;5161145;28;20076;-72
2021/03/30 12:58:51;;;;;;;13.73;12.63;;;22.10;22.60;;;;;;5154870;28;20041;-72
2021/03/30 13:01:22;;;;;;;14.23;12.93;;;22.30;22.80;;;;;;5165855;28;20061;-70
2021/03/30 13:03:54;;;;;;;14.50;13.30;;;22.30;21.80;;;;;;5167051;28;20053;-70
2021/03/30 13:06:26;;;;;;;14.43;13.10;;;22.40;22.20;;;;;;5169186;28;20290;-70
2021/03/30 13:08:57;;;;;;;14.63;13.32;;;22.50;22.40;;;;;;5183230;28;20216;-71
2021/03/30 13:11:29;;;;;;;14.68;13.40;;;22.50;22.00;;;;;;5174670;28;20096;-72
2021/03/30 13:14:00;;;;;;;15.15;13.85;;;22.50;21.90;;;;;;5171265;28;20534;-72
2021/03/30 13:16:32;;;;;;;15.65;14.32;;;22.50;21.60;;;;;;5165569;28;20046;-74
2021/03/30 13:19:03;;;;;;;15.73;14.18;;;22.30;22.00;;;;;;5166469;28;20081;-73
2021/03/30 13:21:55;;;;;;;15.13;13.77;;;22.40;22.20;;;;;;5152619;28;20052;-71
2021/03/30 13:24:29;;;;;;;15.32;14.15;;;22.40;22.30;;;;;;5169823;28;20578;-71
2021/03/30 13:27:02;;;;;;;15.13;13.82;;;22.40;22.00;;;;;;5167425;28;20140;-71
2021/03/30 13:29:38;;;;;;;15.45;14.20;;;22.50;22.90;;;;;;5170927;28;20065;-72